Time;durP1;ratioP1;P1;durP2;ratioP2;P2;SDS_P1;SDS_P2;PMS_P1;PMS_P2;Temp;Humidity;BMP_temperature;BMP_pressure;BME280_temperature;BME280_humidity;BME280_pressure;Samples;Min_cycle;Max_cycle;Signal;HPM_P1;HPM_P2
2023/07/15 00:01:21;;;;;;;3.83;2.92;;;18.30;99.90;;;;;;5052446;28;20068;-61
2023/07/15 00:03:49;;;;;;;5.22;3.38;;;18.30;99.90;;;;;;5052130;28;20490;-61
2023/07/15 00:06:16;;;;;;;9.10;3.33;;;18.30;99.90;;;;;;5051345;28;20440;-60
2023/07/15 00:08:44;;;;;;;;;;;18.30;99.90;;;;;;5049766;28;20052;-60
2023/07/15 00:11:28;;;;;;;9.13;3.13;;;18.20;99.90;;;;;;5052208;28;20012;-59
2023/07/15 00:13:56;;;;;;;5.32;3.38;;;18.20;99.90;;;;;;5050835;28;20124;-60
2023/07/15 00:16:23;;;;;;;6.20;3.05;;;18.20;99.90;;;;;;5052183;28;20099;-59
2023/07/15 00:18:50;;;;;;;5.32;2.92;;;18.20;99.90;;;;;;5052064;28;20045;-61
2023/07/15 00:21:20;;;;;;;4.30;3.22;;;18.10;99.90;;;;;;5049252;28;20094;-61
2023/07/15 00:23:55;;;;;;;4.43;3.30;;;18.00;99.90;;;;;;5050576;28;20056;-61
2023/07/15 00:26:23;;;;;;;6.18;3.50;;;18.10;99.90;;;;;;5052361;28;20037;-60
2023/07/15 00:28:50;;;;;;;7.15;3.20;;;18.00;99.90;;;;;;5052057;28;20074;-60
2023/07/15 00:31:18;;;;;;;5.50;3.60;;;18.00;99.90;;;;;;5034715;28;20448;-60
2023/07/15 00:33:47;;;;;;;4.50;3.55;;;18.00;99.90;;;;;;5032970;28;20051;-61
2023/07/15 00:36:14;;;;;;;4.72;3.50;;;18.00;99.90;;;;;;5052408;28;20116;-61
2023/07/15 00:38:42;;;;;;;5.03;3.47;;;18.00;99.90;;;;;;5046831;28;20041;-61
2023/07/15 00:41:22;;;;;;;3.78;3.30;;;18.10;99.90;;;;;;5035456;28;20486;-60
2023/07/15 00:43:56;;;;;;;5.18;3.42;;;18.00;99.90;;;;;;5050726;28;20037;-60
2023/07/15 00:46:48;;;;;;;4.65;3.33;;;18.00;99.90;;;;;;5051349;28;20041;-61
2023/07/15 00:49:17;;;;;;;4.03;2.95;;;18.00;99.90;;;;;;5039750;28;20052;-60
2023/07/15 00:52:08;;;;;;;4.53;3.33;;;18.00;99.90;;;;;;5049645;28;20123;-61
2023/07/15 00:54:38;;;;;;;4.63;3.70;;;17.90;99.90;;;;;;5033211;28;20048;-61
2023/07/15 00:57:07;;;;;;;7.03;3.88;;;17.90;99.90;;;;;;5032520;28;20055;-61
2023/07/15 00:59:35;;;;;;;4.05;3.40;;;17.80;99.90;;;;;;5052267;28;20401;-61
2023/07/15 01:02:02;;;;;;;4.95;3.45;;;17.80;99.90;;;;;;5032427;28;20036;-60
2023/07/15 01:04:29;;;;;;;5.93;3.72;;;17.80;99.90;;;;;;5051944;28;20104;-60
2023/07/15 01:06:58;;;;;;;4.50;3.60;;;17.80;99.90;;;;;;5049156;28;20045;-61
2023/07/15 01:09:25;;;;;;;4.30;3.67;;;17.70;99.90;;;;;;5049458;28;20041;-61
2023/07/15 01:11:52;;;;;;;13.25;3.75;;;17.70;99.90;;;;;;5050605;28;20052;-60
2023/07/15 01:14:19;;;;;;;5.30;3.50;;;17.70;99.90;;;;;;5026919;28;20091;-60
2023/07/15 01:16:47;;;;;;;10.43;3.42;;;17.70;99.90;;;;;;5033648;28;20033;-61
2023/07/15 01:19:18;;;;;;;6.32;3.78;;;17.60;99.90;;;;;;5029370;28;20051;-61
2023/07/15 01:21:50;;;;;;;4.75;3.80;;;17.60;99.90;;;;;;5030490;28;20051;-60
2023/07/15 01:24:21;;;;;;;8.48;4.07;;;17.60;99.90;;;;;;5051359;28;20056;-61
2023/07/15 01:26:53;;;;;;;7.20;3.78;;;17.60;99.90;;;;;;5051398;28;20045;-60
2023/07/15 01:29:20;;;;;;;6.88;3.83;;;17.60;99.90;;;;;;5046752;28;20041;-60
2023/07/15 01:31:47;;;;;;;5.65;3.42;;;17.60;99.90;;;;;;5051809;28;20036;-61
2023/07/15 01:34:14;;;;;;;4.45;3.72;;;17.60;99.90;;;;;;5033439;28;20045;-61
2023/07/15 01:36:41;;;;;;;10.45;3.78;;;17.50;99.90;;;;;;5038573;28;20080;-61
2023/07/15 01:39:09;;;;;;;6.25;3.30;;;17.60;99.90;;;;;;5048503;28;20072;-61
2023/07/15 01:41:36;;;;;;;5.28;3.55;;;17.50;99.90;;;;;;5051269;28;20035;-61
2023/07/15 01:44:04;;;;;;;3.85;3.05;;;17.50;99.90;;;;;;5032983;28;20098;-61
2023/07/15 01:46:33;;;;;;;5.60;3.42;;;17.50;99.90;;;;;;5050036;28;20087;-59
2023/07/15 01:49:02;;;;;;;5.75;3.70;;;17.50;99.90;;;;;;5030341;28;20462;-61
2023/07/15 01:51:30;;;;;;;4.88;3.53;;;17.40;99.90;;;;;;5033518;28;20069;-60
2023/07/15 01:53:58;;;;;;;6.43;3.53;;;17.40;99.90;;;;;;5050346;28;20406;-61
2023/07/15 01:56:25;;;;;;;7.38;4.45;;;17.40;99.90;;;;;;5034733;28;20049;-61
2023/07/15 01:58:52;;;;;;;13.55;4.25;;;17.40;99.90;;;;;;5052719;28;20088;-61
2023/07/15 02:01:19;;;;;;;10.25;4.22;;;17.50;99.90;;;;;;5042879;28;20737;-60
2023/07/15 02:03:46;;;;;;;10.60;4.47;;;17.50;99.90;;;;;;5051213;28;20037;-61
2023/07/15 02:06:13;;;;;;;10.50;4.95;;;17.60;99.90;;;;;;5051360;28;20075;-60
2023/07/15 02:08:41;;;;;;;7.38;4.30;;;17.60;99.90;;;;;;5045414;28;20045;-60
2023/07/15 02:11:09;;;;;;;5.95;4.68;;;17.60;99.90;;;;;;5053331;28;20049;-61
2023/07/15 02:13:36;;;;;;;8.00;4.32;;;17.60;99.90;;;;;;5034945;28;20063;-61
2023/07/15 02:16:03;;;;;;;5.07;4.38;;;17.50;99.90;;;;;;5036983;28;20053;-60
2023/07/15 02:18:29;;;;;;;9.90;4.47;;;17.50;99.90;;;;;;5035948;28;20412;-60
2023/07/15 02:20:56;;;;;;;9.38;4.13;;;17.50;99.90;;;;;;5054779;28;20385;-61
2023/07/15 02:23:23;;;;;;;7.80;4.78;;;17.40;99.90;;;;;;5035335;28;20036;-60
2023/07/15 02:25:50;;;;;;;7.43;4.45;;;17.40;99.90;;;;;;5054892;28;20108;-61
2023/07/15 02:28:16;;;;;;;7.90;4.90;;;17.40;99.90;;;;;;5036443;28;20131;-60
2023/07/15 02:30:43;;;;;;;7.57;4.60;;;17.40;99.90;;;;;;5037000;28;20052;-60
2023/07/15 02:33:10;;;;;;;5.15;4.50;;;17.40;99.90;;;;;;5050976;28;20045;-60
2023/07/15 02:35:40;;;;;;;7.45;4.78;;;17.40;99.90;;;;;;5046502;28;20033;-59
2023/07/15 02:38:06;;;;;;;6.55;4.35;;;17.40;99.90;;;;;;5051807;28;20051;-61
2023/07/15 02:40:33;;;;;;;7.35;4.35;;;17.30;99.90;;;;;;5033631;28;20041;-60
2023/07/15 02:43:00;;;;;;;6.45;4.65;;;17.30;99.90;;;;;;5036013;28;20045;-61
2023/07/15 02:45:27;;;;;;;11.60;4.82;;;17.30;99.90;;;;;;5043207;28;20045;-61
2023/07/15 02:47:54;;;;;;;5.55;4.65;;;17.30;99.90;;;;;;5036115;28;20053;-61
2023/07/15 02:50:21;;;;;;;6.57;4.78;;;17.30;99.90;;;;;;5051835;28;20048;-60
2023/07/15 02:52:47;;;;;;;7.40;4.80;;;17.30;99.90;;;;;;5037022;28;20049;-61
2023/07/15 02:55:14;;;;;;;7.05;4.22;;;17.20;99.90;;;;;;5052692;28;20076;-60
2023/07/15 02:57:42;;;;;;;6.30;4.50;;;17.20;99.90;;;;;;5052248;28;20040;-60
2023/07/15 03:00:15;;;;;;;6.70;4.80;;;17.20;99.90;;;;;;5054403;28;20068;-61
2023/07/15 03:02:47;;;;;;;9.65;4.15;;;17.20;99.90;;;;;;5036146;28;20041;-60
2023/07/15 03:05:15;;;;;;;8.43;4.80;;;17.20;99.90;;;;;;5053628;28;20091;-61
2023/07/15 03:07:44;;;;;;;5.25;3.63;;;17.20;99.90;;;;;;5016001;28;20041;-61
2023/07/15 03:10:12;;;;;;;7.97;4.28;;;17.10;99.90;;;;;;5035858;28;20110;-61
2023/07/15 03:12:39;;;;;;;6.35;4.05;;;17.10;99.90;;;;;;5053776;28;20041;-61
2023/07/15 03:15:07;;;;;;;4.68;4.03;;;17.00;99.90;;;;;;5050019;28;20073;-61
2023/07/15 03:17:35;;;;;;;;;;;16.90;99.90;;;;;;5033478;28;20136;-61
2023/07/15 03:20:14;;;;;;;7.18;4.07;;;16.80;99.90;;;;;;5033510;28;19967;-61
2023/07/15 03:22:42;;;;;;;6.25;4.53;;;16.80;99.90;;;;;;5035821;28;20080;-61
2023/07/15 03:25:09;;;;;;;7.43;4.28;;;16.80;99.90;;;;;;5049626;28;20502;-61
2023/07/15 03:27:37;;;;;;;9.77;4.70;;;16.80;99.90;;;;;;5052463;28;20055;-60
2023/07/15 03:30:07;;;;;;;7.60;4.57;;;16.80;99.90;;;;;;5053625;28;20045;-60
2023/07/15 03:32:36;;;;;;;6.05;4.32;;;16.80;99.90;;;;;;5048403;28;20478;-61
2023/07/15 03:35:04;;;;;;;5.55;4.60;;;16.90;99.90;;;;;;5035944;28;20075;-61
2023/07/15 03:37:32;;;;;;;7.65;4.60;;;16.90;99.90;;;;;;5052905;28;20049;-60
2023/07/15 03:39:59;;;;;;;6.70;4.60;;;16.90;99.90;;;;;;5034639;28;20041;-61
2023/07/15 03:42:27;;;;;;;10.23;4.68;;;16.90;99.90;;;;;;5047746;28;20041;-60
2023/07/15 03:44:54;;;;;;;6.25;4.95;;;17.00;99.90;;;;;;5094589;23;20047;-65
2023/07/15 03:47:21;;;;;;;6.95;4.93;;;16.90;99.90;;;;;;5037755;28;20045;-65
2023/07/15 03:49:48;;;;;;;5.68;3.55;;;16.90;99.90;;;;;;5043206;28;20045;-65
2023/07/15 03:52:15;;;;;;;5.20;4.05;;;16.80;99.90;;;;;;5043398;28;20051;-65
2023/07/15 03:54:43;;;;;;;8.27;3.60;;;16.80;99.90;;;;;;5024357;28;20037;-65
2023/07/15 03:57:10;;;;;;;6.22;4.50;;;16.70;99.90;;;;;;5018461;28;20122;-65
2023/07/15 03:59:37;;;;;;;;;;;16.70;99.90;;;;;;5028072;28;20050;-64
2023/07/15 04:02:04;;;;;;;8.00;4.82;;;16.80;99.90;;;;;;5020531;28;19922;-65
2023/07/15 04:04:31;;;;;;;7.82;4.63;;;16.90;99.90;;;;;;5020206;28;20045;-65
2023/07/15 04:06:59;;;;;;;9.43;5.00;;;16.90;99.90;;;;;;5023633;28;20060;-64
2023/07/15 04:09:26;;;;;;;9.23;4.78;;;17.00;99.90;;;;;;5016427;28;20052;-65
2023/07/15 04:11:55;;;;;;;;;;;16.90;99.90;;;;;;5032201;28;20045;-65
2023/07/15 04:14:22;;;;;;;5.85;4.65;;;17.00;99.90;;;;;;5016027;28;20297;-65
2023/07/15 04:16:49;;;;;;;10.45;5.25;;;17.00;99.90;;;;;;5032157;28;20037;-65
2023/07/15 04:19:16;;;;;;;6.07;4.47;;;17.00;99.90;;;;;;5031370;28;20049;-65
2023/07/15 04:21:42;;;;;;;6.70;5.00;;;17.10;99.90;;;;;;5020842;28;20045;-65
2023/07/15 04:24:09;;;;;;;7.40;5.13;;;17.10;99.90;;;;;;5021688;28;20049;-65
2023/07/15 04:26:36;;;;;;;7.20;4.97;;;17.10;99.90;;;;;;5023708;28;20045;-65
2023/07/15 04:29:03;;;;;;;12.50;5.13;;;17.10;99.90;;;;;;5024083;28;20040;-65
2023/07/15 04:31:29;;;;;;;8.27;4.78;;;17.20;99.90;;;;;;5022913;28;20046;-65
2023/07/15 04:33:56;;;;;;;7.25;4.65;;;17.20;99.90;;;;;;5031244;28;20772;-65
2023/07/15 04:36:23;;;;;;;8.45;4.93;;;17.30;99.90;;;;;;5031550;28;20059;-65
2023/07/15 04:38:50;;;;;;;7.00;4.63;;;17.30;99.90;;;;;;5019555;28;20050;-65
2023/07/15 04:41:17;;;;;;;8.20;4.40;;;17.40;99.90;;;;;;5030335;28;20131;-65
2023/07/15 04:43:43;;;;;;;5.18;4.15;;;17.40;99.90;;;;;;5031416;28;20512;-65
2023/07/15 04:46:11;;;;;;;5.85;4.28;;;17.40;99.90;;;;;;5031635;28;20049;-65
2023/07/15 04:48:38;;;;;;;9.60;4.53;;;17.40;99.90;;;;;;5021436;28;20041;-65
2023/07/15 04:51:05;;;;;;;;;;;17.50;99.90;;;;;;5030788;28;20056;-65
2023/07/15 04:53:32;;;;;;;7.10;4.20;;;17.50;99.90;;;;;;5031591;28;19921;-65
2023/07/15 04:55:59;;;;;;;13.20;4.07;;;17.50;99.90;;;;;;5032054;28;20045;-65
2023/07/15 04:58:26;;;;;;;;;;;17.60;99.90;;;;;;5024651;28;20057;-64
2023/07/15 05:00:52;;;;;;;7.05;4.40;;;17.60;99.90;;;;;;5019851;28;19938;-65
2023/07/15 05:03:19;;;;;;;7.13;4.40;;;17.70;99.90;;;;;;5029899;28;20037;-65
2023/07/15 05:05:46;;;;;;;12.13;4.60;;;17.70;99.90;;;;;;5031409;28;20486;-65
2023/07/15 05:08:15;;;;;;;;;;;17.80;99.90;;;;;;5031607;28;20107;-65
2023/07/15 05:10:42;;;;;;;9.63;4.28;;;17.80;99.90;;;;;;5016611;28;19921;-65
2023/07/15 05:13:11;;;;;;;5.47;4.50;;;17.90;99.90;;;;;;5030830;28;20046;-65
2023/07/15 05:15:39;;;;;;;5.03;3.95;;;18.00;99.90;;;;;;5015776;28;20045;-65
2023/07/15 05:18:06;;;;;;;8.48;4.85;;;18.10;99.90;;;;;;5022583;28;20050;-65
2023/07/15 05:20:34;;;;;;;4.90;3.85;;;18.20;99.90;;;;;;5015432;28;20128;-65
2023/07/15 05:23:02;;;;;;;8.10;4.88;;;18.20;99.90;;;;;;5018953;28;20050;-65
2023/07/15 05:25:31;;;;;;;9.80;4.47;;;18.20;99.90;;;;;;5014010;28;20055;-65
2023/07/15 05:27:58;;;;;;;5.32;4.13;;;18.30;99.90;;;;;;5030324;28;20045;-65
2023/07/15 05:30:25;;;;;;;7.38;4.55;;;18.50;99.90;;;;;;5029787;28;20046;-65
2023/07/15 05:32:52;;;;;;;7.57;4.57;;;18.40;99.90;;;;;;5028792;28;20057;-65
2023/07/15 05:35:19;;;;;;;6.45;4.38;;;18.50;99.90;;;;;;5022476;28;20445;-65
2023/07/15 05:37:46;;;;;;;7.75;4.30;;;18.60;99.90;;;;;;5011158;28;20038;-65
2023/07/15 05:40:13;;;;;;;4.78;4.03;;;18.60;99.90;;;;;;5018901;28;20026;-65
2023/07/15 05:42:41;;;;;;;6.28;4.13;;;18.60;99.90;;;;;;5021782;28;20030;-65
2023/07/15 05:45:09;;;;;;;8.00;4.40;;;18.80;99.90;;;;;;5019119;28;20060;-65
2023/07/15 05:47:36;;;;;;;6.75;4.25;;;18.90;99.90;;;;;;5019809;28;20474;-65
2023/07/15 05:50:03;;;;;;;4.70;4.18;;;19.00;99.90;;;;;;5018808;28;20038;-64
2023/07/15 05:52:30;;;;;;;5.80;4.05;;;18.90;99.90;;;;;;5020691;28;20397;-65
2023/07/15 05:54:57;;;;;;;5.22;4.32;;;19.00;99.90;;;;;;5019887;28;20100;-65
2023/07/15 05:57:24;;;;;;;5.80;4.15;;;19.00;99.90;;;;;;5028644;28;20045;-65
2023/07/15 05:59:51;;;;;;;8.93;4.30;;;19.00;99.90;;;;;;5015137;28;20069;-65
2023/07/15 06:02:18;;;;;;;;;;;19.20;99.90;;;;;;5018222;28;20038;-64
2023/07/15 06:04:45;;;;;;;7.53;4.20;;;19.30;99.90;;;;;;5017878;28;19933;-64
2023/07/15 06:07:11;;;;;;;5.57;3.92;;;19.40;99.90;;;;;;5016166;28;20402;-66
2023/07/15 06:09:38;;;;;;;4.93;4.32;;;19.50;99.90;;;;;;4991738;28;20061;-66
2023/07/15 06:12:05;;;;;;;7.25;4.57;;;19.60;99.90;;;;;;5014699;28;20046;-66
2023/07/15 06:14:32;;;;;;;6.95;4.20;;;19.60;99.90;;;;;;5013439;28;20046;-66
2023/07/15 06:16:59;;;;;;;7.88;4.05;;;19.60;99.90;;;;;;5019429;28;20525;-66
2023/07/15 06:19:25;;;;;;;5.45;4.40;;;19.80;99.90;;;;;;5007985;28;20046;-66
2023/07/15 06:21:52;;;;;;;9.57;4.88;;;19.80;99.90;;;;;;5034146;28;20486;-66
2023/07/15 06:24:19;;;;;;;5.93;4.15;;;19.80;99.90;;;;;;5018873;28;20048;-66
2023/07/15 06:26:46;;;;;;;6.60;4.15;;;19.90;99.90;;;;;;5008439;28;20041;-66
2023/07/15 06:29:12;;;;;;;5.60;3.78;;;20.00;99.90;;;;;;5034082;28;20080;-66
2023/07/15 06:31:39;;;;;;;5.05;4.07;;;20.10;99.90;;;;;;5024798;28;20045;-66
2023/07/15 06:34:06;;;;;;;8.90;4.50;;;20.20;99.90;;;;;;5024753;28;20513;-66
2023/07/15 06:36:35;;;;;;;5.78;4.85;;;20.30;99.90;;;;;;5023432;28;20402;-66
2023/07/15 06:39:02;;;;;;;6.88;4.07;;;20.50;99.90;;;;;;5028140;28;20045;-66
2023/07/15 06:41:29;;;;;;;6.00;4.35;;;20.60;99.90;;;;;;5025173;28;20417;-64
2023/07/15 06:43:56;;;;;;;5.93;4.35;;;20.80;99.90;;;;;;5021455;28;20095;-65
2023/07/15 06:46:25;;;;;;;7.82;3.88;;;20.80;99.90;;;;;;5029819;28;20038;-66
2023/07/15 06:48:52;;;;;;;4.70;4.20;;;21.00;99.90;;;;;;5028577;28;20038;-66
2023/07/15 06:51:22;;;;;;;7.75;4.32;;;21.10;99.90;;;;;;5015519;28;20045;-66
2023/07/15 06:53:49;;;;;;;7.00;4.38;;;21.30;99.90;;;;;;5025919;28;20049;-66
2023/07/15 06:56:16;;;;;;;6.00;4.13;;;21.50;99.90;;;;;;5033363;28;20061;-66
2023/07/15 06:58:47;;;;;;;8.70;4.85;;;21.60;99.90;;;;;;5010090;28;20600;-66
2023/07/15 07:01:13;;;;;;;;;;;21.80;99.90;;;;;;5027263;28;20041;-66
2023/07/15 07:03:41;;;;;;;4.60;3.95;;;21.90;99.90;;;;;;5025309;28;19921;-66
2023/07/15 07:06:08;;;;;;;5.13;4.07;;;22.10;99.90;;;;;;5025353;28;20080;-66
2023/07/15 07:08:35;;;;;;;5.40;3.95;;;22.10;99.90;;;;;;5021906;28;20097;-66
2023/07/15 07:11:02;;;;;;;;;;;22.30;99.90;;;;;;5009423;28;20107;-66
2023/07/15 07:13:29;;;;;;;4.75;4.10;;;22.40;99.90;;;;;;5033474;28;19948;-66
2023/07/15 07:15:59;;;;;;;9.13;4.30;;;22.60;99.90;;;;;;5025283;28;20056;-66
2023/07/15 07:18:26;;;;;;;8.10;4.68;;;22.80;99.90;;;;;;5028788;28;20120;-66
2023/07/15 07:21:00;;;;;;;;;;;22.90;99.90;;;;;;5021010;28;20045;-66
2023/07/15 07:23:27;;;;;;;7.15;3.95;;;23.00;99.90;;;;;;5032589;28;19921;-66
2023/07/15 07:25:54;;;;;;;;;;;23.00;99.90;;;;;;5024565;28;20558;-66
2023/07/15 07:28:25;;;;;;;4.80;4.00;;;23.10;99.90;;;;;;5032764;28;20000;-66
2023/07/15 07:30:51;;;;;;;7.10;4.78;;;23.20;99.90;;;;;;5027181;28;20041;-66
2023/07/15 07:33:20;;;;;;;4.93;4.13;;;23.40;99.90;;;;;;5024571;28;20042;-66
2023/07/15 07:35:47;;;;;;;6.05;4.50;;;23.50;99.90;;;;;;5022838;28;20033;-66
2023/07/15 07:38:13;;;;;;;4.82;3.88;;;23.70;99.90;;;;;;5023206;28;20050;-66
2023/07/15 07:40:46;;;;;;;7.40;4.60;;;23.90;99.90;;;;;;5029530;28;20045;-66
2023/07/15 07:43:12;;;;;;;6.13;4.25;;;24.10;99.90;;;;;;5010154;28;20041;-66
2023/07/15 07:45:39;;;;;;;6.38;4.15;;;24.40;99.90;;;;;;5024338;28;20112;-66
2023/07/15 07:48:06;;;;;;;4.88;4.18;;;24.50;99.90;;;;;;5022240;28;20041;-66
2023/07/15 07:50:35;;;;;;;6.60;4.30;;;24.60;99.90;;;;;;5025647;28;20046;-66
2023/07/15 07:53:02;;;;;;;4.20;3.80;;;24.90;99.90;;;;;;5025857;28;20037;-66
2023/07/15 07:55:29;;;;;;;4.63;4.20;;;25.00;99.90;;;;;;5022607;28;20048;-66
2023/07/15 07:57:55;;;;;;;5.32;3.85;;;24.80;99.90;;;;;;5025842;28;20037;-66
2023/07/15 08:00:22;;;;;;;9.70;4.60;;;25.00;99.90;;;;;;5020969;28;20487;-66
2023/07/15 08:02:49;;;;;;;;;;;25.00;99.90;;;;;;5025335;28;20478;-66
2023/07/15 08:05:16;;;;;;;5.05;3.80;;;25.10;99.90;;;;;;5026438;28;19953;-66
2023/07/15 08:07:42;;;;;;;6.53;4.93;;;25.10;99.90;;;;;;5025373;28;20052;-66
2023/07/15 08:10:09;;;;;;;5.53;3.80;;;25.20;99.90;;;;;;5022424;28;20045;-66
2023/07/15 08:12:36;;;;;;;8.57;4.38;;;25.20;99.90;;;;;;5021025;28;20038;-66
2023/07/15 08:15:03;;;;;;;6.00;4.45;;;25.30;99.90;;;;;;5023693;28;20041;-66
2023/07/15 08:17:34;;;;;;;4.43;3.92;;;25.40;99.90;;;;;;5024933;28;20661;-66
2023/07/15 08:20:02;;;;;;;5.18;4.20;;;25.50;99.90;;;;;;5023111;28;20049;-66
2023/07/15 08:22:29;;;;;;;5.05;4.30;;;25.50;99.90;;;;;;5024284;28;20495;-66
2023/07/15 08:24:56;;;;;;;4.88;4.03;;;25.60;99.90;;;;;;5023497;28;20040;-66
2023/07/15 08:27:22;;;;;;;5.47;4.18;;;25.80;99.90;;;;;;5023512;28;20042;-66
2023/07/15 08:29:50;;;;;;;4.35;3.95;;;26.00;99.90;;;;;;5020106;28;20072;-66
2023/07/15 08:32:17;;;;;;;4.78;4.07;;;26.10;99.90;;;;;;5023024;28;20088;-66
2023/07/15 08:34:58;;;;;;;8.00;4.32;;;26.20;99.90;;;;;;5021762;28;20048;-66
2023/07/15 08:37:25;;;;;;;7.43;4.75;;;26.40;99.90;;;;;;5025829;28;20570;-66
2023/07/15 08:39:52;;;;;;;6.00;4.10;;;26.40;99.90;;;;;;5021838;28;20056;-66
2023/07/15 08:42:19;;;;;;;6.00;3.55;;;26.50;99.90;;;;;;5024109;28;20056;-66
2023/07/15 08:44:50;;;;;;;6.63;4.22;;;26.60;99.90;;;;;;5021557;28;20711;-66
2023/07/15 08:47:19;;;;;;;4.93;4.13;;;26.60;99.90;;;;;;5030944;28;20044;-66
2023/07/15 08:49:51;;;;;;;5.47;4.15;;;26.60;99.90;;;;;;5023027;28;20103;-66
2023/07/15 08:52:20;;;;;;;5.70;4.13;;;26.80;99.90;;;;;;5016759;28;20124;-66
2023/07/15 08:54:49;;;;;;;4.70;3.90;;;26.90;99.90;;;;;;5020308;28;20034;-66
2023/07/15 08:57:18;;;;;;;5.30;3.70;;;26.90;99.90;;;;;;4990029;28;20427;-66
2023/07/15 08:59:47;;;;;;;5.97;4.13;;;27.20;99.90;;;;;;5029186;28;20491;-66
2023/07/15 09:02:13;;;;;;;5.10;3.88;;;27.20;99.90;;;;;;5023402;28;20414;-66
2023/07/15 09:04:40;;;;;;;;;;;27.40;99.90;;;;;;5024007;28;20055;-66
2023/07/15 09:07:08;;;;;;;8.40;3.97;;;27.50;99.90;;;;;;5016701;28;19933;-66
2023/07/15 09:09:36;;;;;;;7.45;3.97;;;27.80;99.90;;;;;;5028861;28;20060;-66
2023/07/15 09:12:06;;;;;;;7.85;4.25;;;27.80;99.90;;;;;;5011182;28;20495;-66
2023/07/15 09:14:44;;;;;;;4.90;4.15;;;28.00;99.90;;;;;;5011643;28;20041;-66
2023/07/15 09:17:20;;;;;;;11.13;7.43;;;28.00;99.90;;;;;;5021408;28;20452;-66
2023/07/15 09:19:47;;;;;;;16.17;11.10;;;28.20;99.90;;;;;;5021561;28;20045;-66
2023/07/15 09:22:15;;;;;;;7.72;5.97;;;28.20;99.90;;;;;;5023908;28;20045;-66
2023/07/15 09:24:42;;;;;;;4.95;4.43;;;28.30;99.90;;;;;;5020664;28;20514;-66
2023/07/15 09:27:09;;;;;;;;;;;28.40;99.90;;;;;;5024549;28;20044;-66
2023/07/15 09:29:35;;;;;;;44.08;21.50;;;28.40;99.90;;;;;;5021441;28;19921;-67
2023/07/15 09:32:02;;;;;;;41.53;22.42;;;28.50;99.90;;;;;;5018279;28;20050;-65
2023/07/15 09:34:29;;;;;;;26.70;15.35;;;28.60;99.90;;;;;;5019233;28;20490;-66
2023/07/15 09:36:56;;;;;;;;;;;28.90;99.40;;;;;;5030817;28;20060;-65
2023/07/15 09:39:23;;;;;;;8.95;5.57;;;29.00;99.90;;;;;;5023071;28;19921;-65
2023/07/15 09:42:04;;;;;;;8.20;5.75;;;29.00;98.20;;;;;;5021525;28;20048;-65
2023/07/15 09:44:43;;;;;;;13.25;8.55;;;29.20;98.10;;;;;;5022074;28;20518;-65
2023/07/15 09:47:10;;;;;;;6.47;5.05;;;29.30;99.90;;;;;;5030909;28;20116;-66
2023/07/15 09:49:37;;;;;;;6.00;3.95;;;29.40;99.00;;;;;;5031067;28;20041;-65
2023/07/15 09:52:05;;;;;;;7.68;4.15;;;29.40;98.20;;;;;;5018903;28;20402;-65
2023/07/15 09:54:33;;;;;;;5.45;3.85;;;29.60;98.10;;;;;;5014796;28;20475;-65
2023/07/15 09:57:03;;;;;;;6.38;3.83;;;29.70;97.40;;;;;;5012620;28;20037;-65
2023/07/15 09:59:38;;;;;;;5.68;4.07;;;29.80;97.00;;;;;;5013383;28;20050;-66
2023/07/15 10:02:16;;;;;;;4.78;4.07;;;29.80;97.20;;;;;;5014276;28;20052;-66
2023/07/15 10:04:46;;;;;;;5.43;3.97;;;29.90;97.30;;;;;;5015116;28;20041;-66
2023/07/15 10:07:14;;;;;;;5.95;4.07;;;29.90;96.90;;;;;;5013897;28;20108;-66
2023/07/15 10:09:41;;;;;;;8.95;4.03;;;30.00;98.50;;;;;;5013685;28;20037;-66
2023/07/15 10:12:08;;;;;;;;;;;30.10;99.40;;;;;;5015364;28;20120;-66
2023/07/15 10:14:37;;;;;;;4.55;4.10;;;30.20;99.90;;;;;;5013961;28;20341;-66
2023/07/15 10:17:11;;;;;;;4.63;4.00;;;30.20;99.50;;;;;;5013367;28;20145;-66
2023/07/15 10:19:49;;;;;;;6.57;3.92;;;30.10;99.90;;;;;;5017399;28;20053;-66
2023/07/15 10:22:18;;;;;;;6.80;4.30;;;29.90;99.20;;;;;;5019891;28;20042;-66
2023/07/15 10:24:57;;;;;;;7.10;4.60;;;29.90;99.90;;;;;;5018009;28;20065;-66
2023/07/15 10:27:28;;;;;;;6.15;4.38;;;29.80;99.90;;;;;;5015247;28;20038;-66
2023/07/15 10:30:17;;;;;;;10.88;4.30;;;29.90;99.90;;;;;;5015793;28;20042;-66
2023/07/15 10:33:10;;;;;;;4.90;4.07;;;29.90;98.80;;;;;;5016385;28;20048;-66
2023/07/15 10:35:40;;;;;;;5.90;4.20;;;30.00;99.50;;;;;;5024044;28;20479;-66
2023/07/15 10:38:24;;;;;;;4.63;4.22;;;30.10;99.30;;;;;;5025031;28;20053;-65
2023/07/15 10:40:56;;;;;;;5.45;4.15;;;30.20;98.00;;;;;;5018683;23;20053;-62
2023/07/15 10:51:34;;;;;;;6.78;4.63;;;30.70;97.40;;;;;;5049494;28;20037;-62
2023/07/15 10:54:08;;;;;;;9.63;4.25;;;30.80;97.40;;;;;;5044838;28;20051;-62
2023/07/15 10:56:35;;;;;;;5.90;4.00;;;31.00;97.50;;;;;;5039669;28;20037;-62
2023/07/15 10:59:02;;;;;;;;;;;30.90;96.90;;;;;;5052800;28;20055;-61
2023/07/15 11:01:30;;;;;;;8.00;4.28;;;31.00;97.30;;;;;;5051945;28;20321;-62
2023/07/15 11:04:04;;;;;;;5.40;4.00;;;31.10;96.60;;;;;;5050189;28;20045;-62
2023/07/15 11:06:35;;;;;;;4.45;3.90;;;31.20;96.90;;;;;;5048118;28;20033;-62
2023/07/15 11:09:17;;;;;;;5.40;4.57;;;31.20;97.90;;;;;;5052880;28;20132;-62
2023/07/15 11:11:45;;;;;;;4.72;4.05;;;31.20;98.00;;;;;;5052143;28;20037;-61
2023/07/15 11:14:43;;;;;;;4.97;3.63;;;31.30;96.60;;;;;;5049370;28;20033;-61
2023/07/15 11:17:14;;;;;;;8.10;3.97;;;31.30;96.30;;;;;;5042187;28;20049;-62
2023/07/15 11:19:45;;;;;;;5.88;3.40;;;31.40;96.80;;;;;;5052587;28;20037;-61
2023/07/15 11:22:14;;;;;;;3.80;3.50;;;31.50;96.10;;;;;;5046266;28;20494;-62
2023/07/15 11:24:41;;;;;;;4.78;4.20;;;31.60;96.70;;;;;;5046530;28;20047;-61
2023/07/15 11:27:09;;;;;;;4.20;3.80;;;31.60;96.70;;;;;;5053001;28;20044;-62
2023/07/15 11:29:35;;;;;;;4.15;3.75;;;31.70;95.90;;;;;;5045101;28;20041;-62
2023/07/15 11:32:02;;;;;;;3.78;3.40;;;31.70;96.70;;;;;;5049430;28;20045;-61
2023/07/15 11:34:29;;;;;;;7.30;3.70;;;31.60;94.20;;;;;;5052577;28;20121;-62
2023/07/15 11:36:56;;;;;;;5.95;4.32;;;31.90;95.40;;;;;;5050706;28;20056;-60
2023/07/15 11:39:23;;;;;;;4.45;3.47;;;32.00;96.30;;;;;;5051364;28;20033;-62
2023/07/15 11:41:50;;;;;;;5.07;4.07;;;32.20;95.80;;;;;;5048791;28;20037;-61
2023/07/15 11:44:22;;;;;;;8.23;4.03;;;32.30;95.10;;;;;;5052535;28;20505;-61
2023/07/15 11:46:49;;;;;;;4.40;4.00;;;32.20;95.00;;;;;;5049917;28;20031;-61
2023/07/15 11:49:20;;;;;;;4.18;3.75;;;32.20;95.60;;;;;;5046837;28;20517;-61
2023/07/15 11:51:47;;;;;;;3.83;3.35;;;32.30;95.70;;;;;;5051792;28;20041;-62
2023/07/15 11:54:16;;;;;;;4.28;3.67;;;32.40;95.10;;;;;;5030227;28;20538;-62
2023/07/15 11:56:44;;;;;;;4.28;3.40;;;32.60;94.60;;;;;;5035313;28;20073;-62
2023/07/15 11:59:24;;;;;;;4.88;3.42;;;32.70;95.00;;;;;;5052950;28;20045;-64
2023/07/15 12:01:51;;;;;;;5.85;3.22;;;32.90;94.30;;;;;;5049976;28;20049;-63
2023/07/15 12:04:19;;;;;;;4.38;3.95;;;33.00;93.00;;;;;;5052016;28;20051;-62
2023/07/15 12:06:52;;;;;;;4.65;3.45;;;33.00;93.10;;;;;;5048968;28;20444;-62
2023/07/15 12:09:21;;;;;;;4.47;3.50;;;33.10;93.90;;;;;;5044703;28;20128;-62
2023/07/15 12:11:49;;;;;;;5.80;4.03;;;33.20;94.50;;;;;;5051228;28;20436;-62
2023/07/15 12:14:17;;;;;;;4.30;3.90;;;33.20;94.40;;;;;;5051930;28;20049;-61
2023/07/15 12:16:44;;;;;;;4.10;3.70;;;33.20;94.50;;;;;;5050251;28;20560;-61
2023/07/15 12:19:13;;;;;;;5.13;3.95;;;33.40;93.40;;;;;;5045132;28;20446;-61
2023/07/15 12:21:40;;;;;;;5.55;3.90;;;33.40;93.20;;;;;;5052219;28;20041;-60
2023/07/15 12:24:08;;;;;;;3.78;3.47;;;33.30;94.00;;;;;;5043584;28;20044;-62
2023/07/15 12:26:35;;;;;;;4.78;3.50;;;33.40;92.80;;;;;;5052009;28;20154;-62
2023/07/15 12:29:02;;;;;;;4.47;3.75;;;33.50;92.90;;;;;;5049431;28;20401;-62
2023/07/15 12:31:29;;;;;;;4.30;3.13;;;33.60;92.70;;;;;;5038928;28;20124;-62
2023/07/15 12:33:56;;;;;;;4.15;3.08;;;33.70;92.20;;;;;;5050123;28;20060;-62
2023/07/15 12:36:23;;;;;;;3.55;3.15;;;33.80;91.50;;;;;;5051050;28;20059;-62
2023/07/15 12:38:49;;;;;;;3.33;3.03;;;33.80;90.90;;;;;;5058028;28;20041;-62
2023/07/15 12:41:16;;;;;;;4.47;3.20;;;33.80;90.70;;;;;;5058676;28;20044;-62
2023/07/15 12:43:43;;;;;;;5.38;3.78;;;33.90;90.70;;;;;;5061009;28;20490;-61
2023/07/15 12:46:10;;;;;;;4.05;3.75;;;34.00;90.80;;;;;;5049367;28;20064;-62
2023/07/15 12:48:38;;;;;;;3.75;3.17;;;34.20;90.30;;;;;;5056514;28;20151;-62
2023/07/15 12:51:05;;;;;;;4.70;3.75;;;34.20;91.00;;;;;;5043394;28;20103;-61
2023/07/15 12:53:32;;;;;;;3.78;3.42;;;34.20;90.90;;;;;;5038775;28;20040;-62
2023/07/15 12:55:59;;;;;;;3.97;3.40;;;34.30;90.30;;;;;;5053985;28;20044;-62
2023/07/15 12:58:25;;;;;;;7.40;3.80;;;34.30;90.20;;;;;;5049989;28;20041;-61
2023/07/15 13:00:56;;;;;;;6.07;3.60;;;34.30;90.90;;;;;;5048411;28;20055;-62
2023/07/15 13:03:22;;;;;;;4.18;3.63;;;34.50;90.70;;;;;;5054885;28;20444;-62
2023/07/15 13:05:49;;;;;;;5.65;3.50;;;34.60;91.10;;;;;;5059910;28;20041;-62